Time;durP1;ratioP1;P1;durP2;ratioP2;P2;SDS_P1;SDS_P2;PMS_P1;PMS_P2;Temp;Humidity;BMP_temperature;BMP_pressure;BME280_temperature;BME280_humidity;BME280_pressure;Samples;Min_cycle;Max_cycle;Signal;HPM_P1;HPM_P2
2021/09/04 00:00:27;;;;;;;8.80;5.00;;;;;;;25.49;43.12;101061.75;111868;1218;61022;-89
2021/09/04 00:03:52;;;;;;;7.20;5.00;;;;;;;25.48;43.10;101066.30;112179;1224;71326;-88
2021/09/04 00:06:39;;;;;;;7.40;4.90;;;;;;;25.48;43.17;101062.56;112381;1216;76079;-86
2021/09/04 00:09:35;;;;;;;7.80;4.90;;;;;;;25.48;43.17;101062.38;112160;1217;61173;-89
2021/09/04 00:12:21;;;;;;;;;;;;;;;25.48;43.20;101060.41;112002;1218;61108;-84
2021/09/04 00:14:53;;;;;;;6.90;5.00;;;;;;;25.46;43.21;101060.77;111999;1218;72582;-90
2021/09/04 00:18:47;;;;;;;7.10;5.00;;;;;;;25.47;43.23;101063.72;111843;1225;74848;-86
2021/09/04 00:21:38;;;;;;;7.00;4.60;;;;;;;25.46;43.23;101064.52;111487;1229;60974;-80
2021/09/04 00:24:38;;;;;;;7.80;5.20;;;;;;;25.46;43.20;101067.02;111315;1231;60991;-82
2021/09/04 00:27:24;;;;;;;8.20;5.00;;;;;;;25.46;43.34;101065.94;111336;1224;72568;-85
2021/09/04 00:30:32;;;;;;;8.90;5.40;;;;;;;25.46;43.24;101062.73;111316;1231;76354;-85
2021/09/04 00:33:34;;;;;;;;;;;;;;;;;;;;;
2021/09/04 00:36:16;;;;;;;7.30;4.60;;;;;;;25.46;43.37;101055.51;111296;1225;61174;-83
2021/09/04 00:39:13;;;;;;;;;;;;;;;;;;;;;
2021/09/04 00:42:09;;;;;;;;;;;;;;;;;;;;;
2021/09/04 00:45:23;;;;;;;8.30;4.60;;;;;;;25.47;43.27;101054.56;111311;1223;61041;-83
2021/09/04 00:48:21;;;;;;;9.10;5.30;;;;;;;25.46;43.26;101050.81;111303;1225;60999;-87
2021/09/04 00:51:41;;;;;;;6.90;4.90;;;;;;;25.46;43.27;101047.57;111276;1229;71032;-87
2021/09/04 00:54:44;;;;;;;;;;;;;;;;;;;;;
2021/09/04 00:57:37;;;;;;;7.80;5.30;;;;;;;25.46;43.30;101055.33;111288;1227;61086;-89
2021/09/04 01:00:45;;;;;;;7.30;5.10;;;;;;;25.46;43.47;101059.10;111083;1225;61083;-86
2021/09/04 01:03:35;;;;;;;7.00;4.90;;;;;;;25.46;43.46;101055.15;111072;1226;72324;-84
2021/09/04 01:06:57;;;;;;;7.10;4.90;;;;;;;25.46;43.37;101054.45;111200;1232;75455;-83
2021/09/04 01:09:57;;;;;;;7.40;5.20;;;;;;;25.46;43.32;101052.66;111317;1224;61229;-84
2021/09/04 01:13:02;;;;;;;8.70;5.30;;;;;;;25.46;43.36;101045.08;110873;1235;61031;-91
2021/09/04 01:16:33;;;;;;;;;;;;;;;;;;;;;
2021/09/04 01:19:30;;;;;;;8.90;5.50;;;;;;;25.45;43.52;101047.67;110476;1239;74548;-82
2021/09/04 01:22:31;;;;;;;7.60;5.20;;;;;;;25.45;43.33;101045.14;110508;1239;61039;-88
2021/09/04 01:25:17;;;;;;;9.00;5.50;;;;;;;25.46;43.47;101040.21;110363;1232;60937;-88
2021/09/04 01:28:43;;;;;;;9.10;5.50;;;;;;;25.46;43.46;101035.73;110479;1238;73873;-86
2021/09/04 01:32:07;;;;;;;7.80;5.10;;;;;;;25.45;43.57;101035.39;110608;1232;75618;-83
2021/09/04 01:35:40;;;;;;;7.50;5.20;;;;;;;25.45;43.32;101043.71;110249;1235;61031;-87
2021/09/04 01:38:49;;;;;;;7.20;5.10;;;;;;;25.45;43.52;101050.18;110027;1243;61179;-88
2021/09/04 01:41:59;;;;;;;7.70;5.30;;;;;;;25.45;43.52;101052.02;109951;1245;72594;-88
2021/09/04 01:45:08;;;;;;;7.70;5.50;;;;;;;25.45;43.59;101051.11;109995;1237;74520;-89
2021/09/04 01:48:14;;;;;;;8.30;5.10;;;;;;;25.45;43.38;101046.07;109998;1245;61020;-87
2021/09/04 01:51:08;;;;;;;8.10;5.40;;;;;;;25.44;43.51;101041.04;109904;1240;61125;-93
2021/09/04 01:54:21;;;;;;;8.70;5.60;;;;;;;25.45;43.65;101038.48;109671;1246;72046;-87
2021/09/04 01:57:13;;;;;;;8.70;5.20;;;;;;;25.44;43.57;101032.41;109898;1246;76358;-83
2021/09/04 02:00:37;;;;;;;8.80;5.50;;;;;;;25.44;43.50;101032.59;109965;1246;61026;-87
2021/09/04 02:03:33;;;;;;;7.90;4.90;;;;;;;25.44;43.69;101031.14;108965;1253;61048;-87
2021/09/04 02:06:43;;;;;;;7.90;5.50;;;;;;;25.44;43.48;101035.86;108913;1253;72396;-87
2021/09/04 02:10:07;;;;;;;7.90;5.30;;;;;;;25.43;43.55;101039.13;108425;1255;75729;-93
2021/09/04 02:12:53;;;;;;;7.90;5.20;;;;;;;25.44;43.45;101042.52;108427;1251;61527;-88
2021/09/04 02:15:58;;;;;;;;;;;;;;;;;;;;;
2021/09/04 02:18:55;;;;;;;7.30;5.40;;;;;;;25.44;43.50;101035.19;108700;1251;73723;-88
2021/09/04 02:22:02;;;;;;;7.10;4.70;;;;;;;25.43;43.72;101024.02;108808;1252;74962;-81
2021/09/04 02:25:09;;;;;;;;;;;;;;;;;;;;;
2021/09/04 02:27:51;;;;;;;;;;;;;;;;;;;;;
2021/09/04 02:31:05;;;;;;;;;;;;;;;25.41;43.62;101019.54;109490;1247;73518;-90
2021/09/04 02:34:00;;;;;;;6.10;4.50;;;;;;;25.39;43.63;101016.77;109282;1250;74802;-88
2021/09/04 02:37:02;;;;;;;6.90;4.80;;;;;;;25.40;43.69;101014.02;109382;1248;61299;-89
2021/09/04 02:40:06;;;;;;;;;;;;;;;;;;;;;
2021/09/04 02:43:24;;;;;;;;;;;;;;;;;;;;;
2021/09/04 02:46:15;;;;;;;7.20;5.20;;;;;;;25.39;43.65;101003.66;110143;1236;74724;-86
2021/09/04 02:49:23;;;;;;;7.50;5.30;;;;;;;25.40;43.62;100998.86;110100;1244;61211;-82
2021/09/04 02:52:19;;;;;;;;;;;;;;;;;;;;;
2021/09/04 02:55:18;;;;;;;7.10;5.10;;;;;;;25.40;43.88;101009.16;110136;1238;72445;-87
2021/09/04 02:58:24;;;;;;;7.30;4.90;;;;;;;25.40;43.77;101003.23;110177;1241;75935;-87
2021/09/04 03:01:54;;;;;;;;;;;;;;;;;;;;;
2021/09/04 03:04:54;;;;;;;;;;;;;;;;;;;;;
2021/09/04 03:07:57;;;;;;;;;;;;;;;;;;;;;
2021/09/04 03:11:17;;;;;;;;;;;;;;;;;;;;;
2021/09/04 03:14:27;;;;;;;;;;;;;;;;;;;;;
2021/09/04 03:17:28;;;;;;;7.20;4.70;;;;;;;25.40;44.12;100981.39;109625;1249;61020;-90
2021/09/04 03:20:26;;;;;;;7.20;5.10;;;;;;;25.40;43.86;100984.98;109774;1247;71161;-84
2021/09/04 03:23:29;;;;;;;;;;;;;;;;;;;;;
2021/09/04 03:26:38;;;;;;;7.60;4.80;;;;;;;25.41;44.01;100986.78;109974;1246;60048;-83
2021/09/04 03:29:44;;;;;;;7.60;4.90;;;;;;;25.40;44.10;100988.25;109756;1247;61488;-87
2021/09/04 03:33:04;;;;;;;7.70;5.00;;;;;;;25.40;44.25;100992.06;109624;1249;73746;-86
2021/09/04 03:36:13;;;;;;;6.30;4.70;;;;;;;25.40;44.26;100993.50;109642;1248;75746;-86
2021/09/04 03:39:09;;;;;;;;;;;;;;;;;;;;;
2021/09/04 03:41:58;;;;;;;7.40;4.70;;;;;;;25.40;44.33;101000.70;109925;1247;61150;-87
2021/09/04 03:45:24;;;;;;;6.60;5.00;;;;;;;25.40;44.29;100994.95;109946;1245;71148;-88
2021/09/04 03:48:34;;;;;;;;;;;;;;;;;;;;;
2021/09/04 03:51:30;;;;;;;6.90;4.80;;;;;;;25.40;44.37;100998.23;109838;1249;61043;-83
2021/09/04 03:54:41;;;;;;;5.70;4.70;;;;;;;25.39;44.31;100999.66;109970;1244;61046;-86
2021/09/04 03:57:31;;;;;;;7.30;5.10;;;;;;;25.39;44.20;100998.93;110033;1237;72815;-83
2021/09/04 04:00:28;;;;;;;8.40;5.00;;;;;;;25.40;44.47;100996.40;110065;1244;75001;-83
2021/09/04 04:03:53;;;;;;;;;;;;;;;;;;;;;
2021/09/04 04:06:39;;;;;;;6.00;4.70;;;;;;;25.39;44.46;100994.66;110130;1242;61056;-85
2021/09/04 04:10:03;;;;;;;8.60;5.00;;;;;;;25.39;44.48;100993.77;110139;1240;72448;-84
2021/09/04 04:13:07;;;;;;;6.50;4.70;;;;;;;25.38;44.34;100996.69;110180;1236;65978;-81
2021/09/04 04:16:06;;;;;;;7.30;4.50;;;;;;;25.39;44.49;100998.77;110151;1241;61081;-81
2021/09/04 04:19:11;;;;;;;7.80;4.50;;;;;;;25.40;44.45;101001.09;110069;1241;61053;-82
2021/09/04 04:21:58;;;;;;;7.70;5.00;;;;;;;25.40;44.61;100995.48;110037;1235;72322;-81
2021/09/04 04:24:44;;;;;;;6.40;4.60;;;;;;;25.40;44.60;100994.73;110145;1234;75750;-82
2021/09/04 04:27:15;;;;;;;6.90;4.50;;;;;;;25.41;44.59;100990.67;110347;1238;61261;-82
2021/09/04 04:30:07;;;;;;;7.30;4.70;;;;;;;25.41;44.69;100987.46;110328;1238;61133;-82
2021/09/04 04:33:00;;;;;;;7.90;4.90;;;;;;;25.41;44.84;100989.59;110325;1238;73438;-84
2021/09/04 04:36:01;;;;;;;6.20;4.10;;;;;;;25.42;44.66;100994.18;110448;1238;74569;-89
2021/09/04 04:38:57;;;;;;;6.80;4.60;;;;;;;25.42;44.58;100995.27;110467;1239;61040;-85
2021/09/04 04:42:29;;;;;;;6.10;4.50;;;;;;;25.42;44.54;100992.77;110479;1239;61085;-88
2021/09/04 04:45:15;;;;;;;;;;;;;;;;;;;;;
2021/09/04 04:48:15;;;;;;;6.00;4.50;;;;;;;25.42;44.57;100996.73;110222;1242;73543;-86
2021/09/04 04:51:42;;;;;;;10.20;4.50;;;;;;;25.41;44.61;101001.66;110409;1241;60961;-86
2021/09/04 04:54:49;;;;;;;7.20;4.70;;;;;;;25.42;44.78;101012.63;110408;1239;61031;-81
2021/09/04 04:57:49;;;;;;;6.10;4.40;;;;;;;25.41;44.62;101019.86;110393;1239;73952;-88
2021/09/04 05:00:57;;;;;;;;;;;;;;;;;;;;;
2021/09/04 05:03:55;;;;;;;;;;;;;;;;;;;;;
2021/09/04 05:06:43;;;;;;;6.90;4.40;;;;;;;25.41;44.70;101021.29;110033;1245;61034;-87
2021/09/04 05:12:49;;;;;;;6.60;4.30;;;;;;;25.41;44.58;101024.41;110005;1245;73235;-86
2021/09/04 05:15:51;;;;;;;;;;;;;;;;;;;;;
2021/09/04 05:18:48;;;;;;;6.70;4.20;;;;;;;25.41;44.57;101027.60;110066;1244;61036;-86
2021/09/04 05:21:39;;;;;;;6.20;4.60;;;;;;;25.41;44.50;101025.09;110107;1243;63854;-84
2021/09/04 05:24:58;;;;;;;;;;;;;;;;;;;;;
2021/09/04 05:28:27;;;;;;;5.90;4.40;;;;;;;25.41;44.40;101027.80;110054;1244;62714;-84
2021/09/04 05:31:30;;;;;;;6.30;4.30;;;;;;;25.41;44.60;101026.16;110130;1242;61318;-85
2021/09/04 05:34:33;;;;;;;6.10;4.10;;;;;;;25.42;44.69;101027.02;110151;1235;72620;-88
2021/09/04 05:37:47;;;;;;;;;;;;;;;;;;;;;
2021/09/04 05:40:54;;;;;;;5.20;3.80;;;;;;;25.43;44.49;101023.54;110261;1238;61178;-87
2021/09/04 05:44:00;;;;;;;5.90;4.20;;;;;;;25.43;44.61;101020.27;110289;1240;61324;-88
2021/09/04 05:47:05;;;;;;;5.90;4.20;;;;;;;25.44;44.47;101018.88;110300;1239;72753;-83
2021/09/04 05:50:04;;;;;;;5.10;3.80;;;;;;;25.45;44.62;101020.30;110162;1235;75414;-88
2021/09/04 05:52:59;;;;;;;;;;;;;;;25.46;44.58;101024.18;110038;1241;61168;-90
2021/09/04 05:56:05;;;;;;;5.70;3.60;;;;;;;25.44;44.65;101027.36;109927;1247;61155;-89
2021/09/04 05:59:13;;;;;;;5.70;3.80;;;;;;;25.46;44.66;101030.83;109883;1247;72486;-88
2021/09/04 06:02:03;;;;;;;6.90;4.00;;;;;;;25.48;44.60;101028.15;109710;1247;75918;-88
2021/09/04 06:05:17;;;;;;;6.10;3.70;;;;;;;25.48;44.62;101023.77;109846;1240;61126;-80
2021/09/04 06:08:45;;;;;;;5.00;3.60;;;;;;;25.50;44.43;101018.63;109948;1245;61096;-87
2021/09/04 06:11:39;;;;;;;5.70;3.80;;;;;;;25.50;44.58;101023.23;109955;1246;63767;-89
2021/09/04 06:14:34;;;;;;;6.00;4.00;;;;;;;25.51;44.49;101019.17;110012;1242;74585;-88
2021/09/04 06:17:40;;;;;;;6.30;3.90;;;;;;;25.53;44.49;101025.71;110088;1242;61034;-86
2021/09/04 06:20:21;;;;;;;;;;;;;;;;;;;;;
2021/09/04 06:23:27;;;;;;;4.70;3.30;;;;;;;25.55;44.70;101030.55;110057;1244;71243;-88
2021/09/04 06:26:29;;;;;;;;;;;;;;;;;;;;;
2021/09/04 06:29:24;;;;;;;5.60;4.00;;;;;;;25.57;44.50;101039.27;110175;1243;59795;-86
2021/09/04 06:32:13;;;;;;;6.00;4.10;;;;;;;25.58;44.60;101046.01;110580;1231;61098;-89
2021/09/04 06:35:17;;;;;;;6.70;4.20;;;;;;;25.58;44.67;101045.42;110481;1238;72418;-87
2021/09/04 06:38:16;;;;;;;5.50;3.90;;;;;;;25.59;44.49;101046.79;110520;1239;75919;-88
2021/09/04 06:41:11;;;;;;;5.50;3.80;;;;;;;25.61;44.59;101043.95;110581;1238;61159;-80
2021/09/04 06:43:54;;;;;;;6.00;3.90;;;;;;;25.61;44.56;101045.55;110751;1235;61134;-85
2021/09/04 06:47:21;;;;;;;;;;;;;;;;;;;;;
2021/09/04 06:50:04;;;;;;;5.70;4.20;;;;;;;25.63;44.67;101049.91;110736;1235;73805;-85
2021/09/04 06:53:01;;;;;;;5.00;3.70;;;;;;;25.64;44.63;101044.98;111070;1234;61295;-87
2021/09/04 06:56:00;;;;;;;;;;;;;;;;;;;;;
2021/09/04 06:59:10;;;;;;;4.90;3.50;;;;;;;25.66;44.56;101057.60;111259;1231;72407;-92
2021/09/04 07:02:16;;;;;;;;;;;;;;;;;;;;;
2021/09/04 07:05:09;;;;;;;6.50;3.70;;;;;;;25.67;44.66;101058.39;111102;1234;60999;-87
2021/09/04 07:08:18;;;;;;;;;;;;;;;;;;;;;
2021/09/04 07:11:18;;;;;;;5.00;3.70;;;;;;;25.68;44.46;101062.43;111057;1232;73481;-87
2021/09/04 07:14:48;;;;;;;5.50;3.40;;;;;;;25.68;44.51;101063.86;111110;1232;75522;-83
2021/09/04 07:17:41;;;;;;;5.20;3.60;;;;;;;25.70;44.53;101060.48;111247;1232;60955;-90
2021/09/04 07:20:43;;;;;;;5.80;3.80;;;;;;;25.71;44.40;101063.30;111225;1231;61003;-83
2021/09/04 07:23:38;;;;;;;;;;;;;;;;;;;;;
2021/09/04 07:26:33;;;;;;;5.30;3.60;;;;;;;25.72;44.48;101061.59;111181;1232;73836;-86
2021/09/04 07:29:29;;;;;;;5.10;3.70;;;;;;;25.72;44.51;101060.13;111513;1225;60964;-85
2021/09/04 07:32:18;;;;;;;6.40;3.90;;;;;;;25.72;44.59;101058.50;111304;1224;61003;-86
2021/09/04 07:35:06;;;;;;;5.00;3.60;;;;;;;25.73;44.42;101052.11;111335;1228;73524;-84
2021/09/04 07:37:57;;;;;;;4.90;3.40;;;;;;;25.73;44.45;101046.12;111765;1225;66832;-88
2021/09/04 07:41:26;;;;;;;6.20;3.60;;;;;;;25.73;44.58;101049.73;111990;1225;61126;-83
2021/09/04 07:44:12;;;;;;;4.90;3.40;;;;;;;25.73;44.59;101058.36;111750;1222;61008;-82
2021/09/04 07:46:49;;;;;;;4.90;3.60;;;;;;;25.74;44.58;101060.14;111365;1231;72466;-83
2021/09/04 07:49:45;;;;;;;6.00;4.10;;;;;;;25.74;44.59;101061.33;111146;1232;73167;-89
2021/09/04 07:52:51;;;;;;;4.60;3.50;;;;;;;25.74;44.51;101057.92;111353;1231;61021;-87
2021/09/04 07:55:42;;;;;;;5.50;3.70;;;;;;;25.74;44.70;101045.14;111662;1225;61054;-86
2021/09/04 07:58:49;;;;;;;4.60;3.30;;;;;;;25.75;44.58;101042.21;111636;1225;71157;-87
2021/09/04 08:02:03;;;;;;;5.20;3.40;;;;;;;25.74;44.61;101039.53;111608;1228;73222;-87
2021/09/04 08:05:03;;;;;;;4.40;3.30;;;;;;;25.74;44.69;101040.30;111350;1231;60993;-84
2021/09/04 08:08:07;;;;;;;6.20;3.50;;;;;;;25.74;44.64;101043.36;111081;1234;62961;-85
2021/09/04 08:11:22;;;;;;;6.20;3.50;;;;;;;25.74;44.71;101040.84;111040;1229;63586;-85
2021/09/04 08:14:08;;;;;;;5.50;3.70;;;;;;;25.74;44.77;101037.00;111015;1229;75609;-90
2021/09/04 08:17:23;;;;;;;5.20;3.20;;;;;;;25.74;44.83;101035.40;111032;1232;60996;-88
2021/09/04 08:20:20;;;;;;;5.80;3.70;;;;;;;25.74;44.80;101034.15;110804;1237;61077;-84
2021/09/04 08:23:29;;;;;;;;;;;;;;;25.74;44.88;101030.88;110972;1232;73836;-86
2021/09/04 08:26:47;;;;;;;;;;;;;;;;;;;;;
2021/09/04 08:29:52;;;;;;;5.20;3.50;;;;;;;25.72;44.75;101024.58;111051;1228;61097;-85
2021/09/04 08:33:00;;;;;;;5.10;3.90;;;;;;;25.73;44.88;101027.05;111062;1229;61348;-88
2021/09/04 08:36:23;;;;;;;5.00;3.40;;;;;;;25.72;44.83;101026.19;111080;1229;64962;-85
2021/09/04 08:39:20;;;;;;;;;;;;;;;;;;;;;
2021/09/04 08:42:26;;;;;;;5.40;3.20;;;;;;;25.72;44.91;101026.54;111073;1233;61136;-86
2021/09/04 08:45:47;;;;;;;5.00;3.70;;;;;;;25.73;44.85;101025.91;111065;1232;61069;-89
2021/09/04 08:48:45;;;;;;;;;;;;;;;;;;;;;
2021/09/04 08:51:33;;;;;;;4.80;3.50;;;;;;;25.73;44.92;101026.48;110877;1235;66198;-90
2021/09/04 08:54:28;;;;;;;4.60;3.10;;;;;;;25.73;44.94;101025.21;110837;1235;61044;-82
2021/09/04 08:57:53;;;;;;;4.60;3.20;;;;;;;25.73;44.86;101017.97;110872;1229;61134;-90
2021/09/04 09:01:08;;;;;;;5.80;3.60;;;;;;;25.73;44.81;101016.05;110817;1228;65293;-84
2021/09/04 09:03:51;;;;;;;5.70;3.30;;;;;;;25.73;44.77;101017.12;110813;1235;65855;-84
2021/09/04 09:07:02;;;;;;;;;;;;;;;;;;;;;
2021/09/04 09:09:50;;;;;;;;;;;;;;;;;;;;;
2021/09/04 09:12:58;;;;;;;5.30;3.20;;;;;;;25.74;44.80;101023.19;110870;1228;72150;-88
2021/09/04 09:15:59;;;;;;;;;;;;;;;;;;;;;
2021/09/04 09:19:12;;;;;;;;;;;;;;;;;;;;;
2021/09/04 09:22:21;;;;;;;4.70;3.20;;;;;;;25.73;44.76;101019.42;111380;1228;60979;-90
2021/09/04 09:25:29;;;;;;;5.10;3.50;;;;;;;25.73;44.93;101019.98;110983;1232;72440;-85
2021/09/04 09:28:44;;;;;;;4.60;3.20;;;;;;;25.73;44.84;101015.10;111414;1227;75561;-84
2021/09/04 09:31:42;;;;;;;4.70;3.20;;;;;;;25.73;44.77;101014.56;111168;1233;61288;-90
2021/09/04 09:34:54;;;;;;;4.50;3.10;;;;;;;25.74;44.75;101019.03;110903;1235;61130;-86
2021/09/04 09:37:50;;;;;;;4.10;3.10;;;;;;;25.74;44.83;101019.91;110316;1243;71836;-84
2021/09/04 09:40:45;;;;;;;4.80;3.20;;;;;;;25.74;44.80;101018.30;110068;1238;75910;-84
2021/09/04 09:44:05;;;;;;;4.40;3.10;;;;;;;25.74;44.81;101014.86;109372;1251;61005;-86
2021/09/04 09:47:06;;;;;;;5.00;3.50;;;;;;;25.74;44.81;101016.98;109240;1250;60975;-88
2021/09/04 09:50:06;;;;;;;5.10;3.30;;;;;;;25.74;44.61;101011.23;109174;1249;72677;-89
2021/09/04 09:52:45;;;;;;;4.40;3.10;;;;;;;25.75;44.78;101006.17;109165;1249;75634;-86
2021/09/04 09:55:14;;;;;;;4.00;2.90;;;;;;;25.75;44.86;101004.86;109248;1245;61108;-82
2021/09/04 09:58:13;;;;;;;4.70;3.00;;;;;;;25.76;44.75;101002.65;109208;1251;61070;-83
2021/09/04 10:00:59;;;;;;;4.30;2.70;;;;;;;25.75;44.88;101002.65;109732;1248;63836;-91
2021/09/04 10:03:57;;;;;;;4.90;3.20;;;;;;;25.76;44.83;101000.63;109813;1248;74457;-87
2021/09/04 10:07:24;;;;;;;4.40;2.90;;;;;;;25.75;44.83;100994.40;109843;1248;61037;-88
2021/09/04 10:10:10;;;;;;;4.90;3.30;;;;;;;25.76;44.85;100994.88;110120;1244;61022;-87
2021/09/04 10:13:15;;;;;;;5.30;3.40;;;;;;;25.75;45.00;100993.48;110118;1237;65115;-86
2021/09/04 10:16:20;;;;;;;4.50;3.20;;;;;;;25.75;44.89;100994.74;110262;1240;74542;-89
2021/09/04 10:19:17;;;;;;;;;;;;;;;;;;;;;
2021/09/04 10:22:19;;;;;;;;;;;;;;;;;;;;;
2021/09/04 10:25:15;;;;;;;4.40;3.20;;;;;;;25.74;44.87;100999.55;111697;1221;72876;-84
2021/09/04 10:28:32;;;;;;;4.40;3.00;;;;;;;25.74;44.94;100995.90;111776;1221;74354;-86
2021/09/04 10:31:28;;;;;;;;;;;;;;;;;;;;;
2021/09/04 10:34:26;;;;;;;4.70;3.30;;;;;;;25.74;45.09;100990.71;111583;1229;61018;-86
2021/09/04 10:37:38;;;;;;;4.80;3.00;;;;;;;25.73;44.99;100987.34;111558;1230;73489;-87
2021/09/04 10:40:40;;;;;;;4.60;3.10;;;;;;;25.73;45.04;100981.98;111653;1228;74789;-90
2021/09/04 10:44:04;;;;;;;4.50;3.30;;;;;;;25.73;44.87;100979.47;111814;1225;61050;-85
2021/09/04 10:47:00;;;;;;;4.40;3.00;;;;;;;25.72;45.08;100978.25;111731;1221;60320;-86
2021/09/04 10:50:11;;;;;;;5.60;3.20;;;;;;;25.72;45.03;100977.39;111718;1221;64803;-93
2021/09/04 10:53:23;;;;;;;;;;;;;;;;;;;;;
2021/09/04 10:56:09;;;;;;;;;;;;;;;25.72;45.04;100994.86;111632;1226;61695;-88
2021/09/04 10:59:22;;;;;;;4.70;2.80;;;;;;;25.69;45.08;100990.59;111732;1222;61187;-85
2021/09/04 11:02:07;;;;;;;4.50;3.10;;;;;;;25.69;44.98;100983.73;111779;1227;63929;-85
2021/09/04 11:05:56;;;;;;;4.80;3.00;;;;;;;25.69;44.94;100972.75;111582;1230;75928;-87
2021/09/04 11:09:10;;;;;;;;;;;;;;;;;;;;;
2021/09/04 11:12:19;;;;;;;4.10;3.00;;;;;;;25.68;44.94;100963.63;111390;1228;61012;-84
2021/09/04 11:15:30;;;;;;;4.40;3.20;;;;;;;25.68;45.12;100961.66;111074;1233;63911;-84
2021/09/04 11:18:30;;;;;;;4.70;3.20;;;;;;;25.68;45.08;100960.05;111048;1234;65781;-84
2021/09/04 11:21:35;;;;;;;5.00;3.30;;;;;;;25.69;45.01;100961.40;110920;1235;61399;-81
2021/09/04 11:24:22;;;;;;;5.40;3.20;;;;;;;25.69;45.04;100958.34;110623;1233;61005;-85
2021/09/04 11:27:32;;;;;;;4.30;3.00;;;;;;;25.69;45.01;100960.13;110616;1239;72435;-85
2021/09/04 11:30:41;;;;;;;4.70;3.30;;;;;;;25.70;45.13;100957.77;110586;1235;74550;-88
2021/09/04 11:33:48;;;;;;;4.70;3.10;;;;;;;25.69;44.99;100950.41;110576;1230;61021;-84
2021/09/04 11:36:44;;;;;;;4.50;2.90;;;;;;;25.69;45.02;100942.65;110433;1232;60959;-84
2021/09/04 11:40:27;;;;;;;;;;;;;;;;;;;;;
2021/09/04 11:43:30;;;;;;;4.50;2.90;;;;;;;25.69;44.89;100930.25;110611;1231;74497;-86
2021/09/04 11:46:44;;;;;;;5.00;2.90;;;;;;;25.69;44.98;100929.36;110782;1235;60326;-85
2021/09/04 11:49:55;;;;;;;4.80;3.00;;;;;;;25.69;45.17;100927.55;110835;1230;61168;-83
2021/09/04 11:52:50;;;;;;;;;;;;;;;;;;;;;
2021/09/04 11:56:12;;;;;;;4.10;2.70;;;;;;;25.69;45.21;100922.66;110300;1241;65745;-86
2021/09/04 11:59:07;;;;;;;5.00;2.90;;;;;;;25.69;45.12;100923.73;109842;1241;61040;-83
2021/09/04 12:02:02;;;;;;;4.80;3.10;;;;;;;25.69;45.23;100923.53;109682;1239;61140;-84
2021/09/04 12:04:56;;;;;;;4.60;3.20;;;;;;;25.70;45.01;100924.05;109578;1240;63921;-83
2021/09/04 12:07:36;;;;;;;4.80;3.10;;;;;;;25.71;45.14;100923.27;109684;1239;73744;-85
2021/09/04 12:10:31;;;;;;;4.60;3.10;;;;;;;25.70;45.11;100925.98;109661;1246;61046;-83
2021/09/04 12:13:31;;;;;;;4.20;3.00;;;;;;;25.71;45.13;100924.45;109831;1238;61064;-86
2021/09/04 12:16:18;;;;;;;;;;;;;;;;;;;;;
2021/09/04 12:19:38;;;;;;;4.80;3.10;;;;;;;25.72;45.25;100924.20;110124;1243;74399;-83
2021/09/04 12:23:01;;;;;;;;;;;;;;;;;;;;;
2021/09/04 12:26:00;;;;;;;5.90;3.10;;;;;;;25.71;45.17;100921.44;109912;1241;61181;-87
2021/09/04 12:29:02;;;;;;;4.60;3.10;;;;;;;25.71;45.20;100919.27;110025;1244;72720;-87
2021/09/04 12:32:24;;;;;;;;;;;;;;;;;;;;;
2021/09/04 12:35:19;;;;;;;4.50;2.90;;;;;;;25.70;45.25;100910.27;110370;1238;60955;-82
2021/09/04 12:38:08;;;;;;;4.00;2.80;;;;;;;25.70;45.13;100903.41;110855;1229;61016;-91
2021/09/04 12:41:51;;;;;;;4.00;2.90;;;;;;;25.70;45.20;100890.86;110802;1235;71295;-87
2021/09/04 12:45:03;;;;;;;4.00;2.90;;;;;;;25.69;45.22;100895.05;110848;1233;73911;-85
2021/09/04 12:47:58;;;;;;;4.20;2.90;;;;;;;25.70;45.20;100892.12;110635;1236;61022;-91
2021/09/04 12:51:29;;;;;;;4.20;3.00;;;;;;;25.70;45.13;100890.47;110879;1230;61652;-80
2021/09/04 12:54:53;;;;;;;4.10;3.00;;;;;;;25.70;45.16;100889.41;110587;1232;73139;-90
2021/09/04 12:57:59;;;;;;;4.40;3.00;;;;;;;25.70;45.05;100883.84;110574;1238;75455;-89
2021/09/04 13:01:29;;;;;;;4.70;3.00;;;;;;;25.70;45.19;100884.86;110541;1230;61242;-85
2021/09/04 13:04:35;;;;;;;5.30;3.20;;;;;;;25.71;45.24;100880.37;110602;1230;61004;-88
2021/09/04 13:08:00;;;;;;;3.90;2.80;;;;;;;25.71;45.18;100876.18;110350;1231;63807;-84
2021/09/04 13:10:44;;;;;;;4.20;3.10;;;;;;;25.71;45.30;100870.95;110252;1242;74236;-83
2021/09/04 13:13:41;;;;;;;3.80;2.90;;;;;;;25.72;45.21;100872.63;110070;1242;61181;-85
2021/09/04 13:16:07;;;;;;;4.70;2.90;;;;;;;25.73;45.23;100871.66;110088;1240;60984;-81
2021/09/04 13:18:46;;;;;;;5.90;3.10;;;;;;;25.74;45.04;100873.04;110081;1233;72617;-82
2021/09/04 13:21:52;;;;;;;;;;;;;;;;;;;;;
2021/09/04 13:24:44;;;;;;;4.40;2.90;;;;;;;25.74;45.25;100877.48;110310;1233;61021;-89
2021/09/04 13:27:24;;;;;;;;;;;;;;;;;;;;;
2021/09/04 13:30:44;;;;;;;4.80;3.10;;;;;;;25.74;45.33;100880.00;110564;1230;62512;-87
2021/09/04 13:34:18;;;;;;;3.90;2.60;;;;;;;25.75;45.14;100877.95;110533;1239;74459;-87
2021/09/04 13:37:22;;;;;;;4.70;3.10;;;;;;;25.75;45.15;100877.39;110638;1237;61050;-89
2021/09/04 13:40:29;;;;;;;;;;;;;;;;;;;;;
2021/09/04 13:43:42;;;;;;;4.30;2.90;;;;;;;25.75;45.17;100881.35;110602;1233;72295;-85
2021/09/04 13:50:16;;;;;;;4.70;3.00;;;;;;;25.76;45.20;100875.71;110885;1227;61021;-88
2021/09/04 13:53:22;;;;;;;;;;;;;;;;;;;;;
2021/09/04 13:56:27;;;;;;;4.10;3.10;;;;;;;25.76;45.09;100871.19;110956;1226;73371;-87
2021/09/04 13:59:38;;;;;;;5.90;3.20;;;;;;;25.77;45.30;100867.55;110839;1235;75461;-84
2021/09/04 14:02:44;;;;;;;4.10;3.00;;;;;;;25.76;45.15;100865.61;110883;1230;61169;-90
2021/09/04 14:05:26;;;;;;;4.60;2.70;;;;;;;25.76;45.38;100863.62;110926;1227;61044;-80
2021/09/04 14:08:15;;;;;;;;;;;;;;;;;;;;;
2021/09/04 14:11:35;;;;;;;;;;;;;;;;;;;;;
2021/09/04 14:14:21;;;;;;;4.20;2.80;;;;;;;25.77;45.16;100856.52;110845;1236;61190;-89
2021/09/04 14:17:36;;;;;;;;;;;;;;;;;;;;;
2021/09/04 14:20:45;;;;;;;3.80;2.60;;;;;;;25.77;45.21;100853.08;111563;1225;72582;-89
2021/09/04 14:23:49;;;;;;;4.40;2.70;;;;;;;25.77;45.21;100856.33;111680;1220;75515;-84
2021/09/04 14:26:36;;;;;;;5.30;2.70;;;;;;;25.77;45.21;100856.13;111763;1227;61094;-89
2021/09/04 14:29:49;;;;;;;3.60;2.80;;;;;;;25.78;45.32;100855.36;111783;1228;61087;-84
2021/09/04 14:32:36;;;;;;;4.90;3.10;;;;;;;25.78;45.27;100856.62;111827;1222;73338;-89
2021/09/04 14:35:35;;;;;;;;;;;;;;;;;;;;;
2021/09/04 14:38:32;;;;;;;;;;;;;;;;;;;;;
2021/09/04 14:41:49;;;;;;;4.10;2.70;;;;;;;25.77;45.36;100851.60;112015;1218;60978;-84
2021/09/04 14:44:35;;;;;;;3.90;2.70;;;;;;;25.78;45.22;100851.55;111425;1222;73072;-84
2021/09/04 14:47:44;;;;;;;4.80;2.70;;;;;;;25.78;45.23;100849.79;111648;1224;73120;-85
2021/09/04 14:50:33;;;;;;;;;;;;;;;25.78;45.26;100850.46;111437;1230;61140;-87
2021/09/04 14:53:55;;;;;;;4.70;2.90;;;;;;;25.75;45.36;100852.32;111767;1228;61030;-83
2021/09/04 14:56:49;;;;;;;4.30;2.70;;;;;;;25.75;45.31;100853.05;111791;1220;63763;-84
2021/09/04 14:59:48;;;;;;;4.20;2.70;;;;;;;25.75;45.31;100848.90;111786;1227;74463;-82
2021/09/04 15:02:53;;;;;;;;;;;;;;;;;;;;;
2021/09/04 15:05:45;;;;;;;4.20;2.90;;;;;;;25.75;45.33;100842.04;111365;1227;61283;-84
2021/09/04 15:08:39;;;;;;;4.00;2.70;;;;;;;25.76;45.43;100843.80;111251;1230;72671;-84
2021/09/04 15:11:28;;;;;;;4.00;2.60;;;;;;;25.76;45.37;100849.59;111344;1225;74471;-84
2021/09/04 15:14:23;;;;;;;;;;;;;;;25.76;45.31;100847.62;111058;1233;60998;-91
2021/09/04 15:17:22;;;;;;;4.00;2.80;;;;;;;25.74;45.54;100850.45;110688;1230;60950;-89
2021/09/04 15:20:51;;;;;;;4.30;2.60;;;;;;;25.74;45.43;100849.95;110709;1230;62496;-83
2021/09/04 15:23:41;;;;;;;4.60;2.80;;;;;;;25.74;45.27;100847.55;110435;1239;75566;-84
2021/09/04 15:26:47;;;;;;;4.30;3.00;;;;;;;25.74;45.37;100847.80;110602;1238;61721;-85
2021/09/04 15:29:45;;;;;;;;;;;;;;;;;;;;;
2021/09/04 15:32:39;;;;;;;3.70;2.70;;;;;;;25.74;45.40;100849.79;110531;1230;73794;-89
2021/09/04 15:35:40;;;;;;;4.60;2.90;;;;;;;25.73;45.26;100844.94;110559;1232;75618;-83
2021/09/04 15:38:29;;;;;;;4.00;2.70;;;;;;;25.73;45.56;100844.37;110323;1235;61713;-85
2021/09/04 15:41:45;;;;;;;3.90;2.60;;;;;;;25.73;45.40;100841.52;110265;1234;61034;-85
2021/09/04 15:44:44;;;;;;;;;;;;;;;;;;;;;
2021/09/04 15:47:13;;;;;;;3.90;2.60;;;;;;;25.73;45.31;100842.63;110558;1231;74681;-85